sensor_id;sensor_type;location;lat;lon;timestamp;pressure;altitude;pressure_sealevel;temperature;humidity
35443;BME280;21561;55.654;37.592;2023-01-30T00:01:18;98460.16;;;-3.60;100.00
35443;BME280;21561;55.654;37.592;2023-01-30T00:03:46;98455.91;;;-3.61;100.00
35443;BME280;21561;55.654;37.592;2023-01-30T00:06:13;98458.31;;;-3.65;100.00
35443;BME280;21561;55.654;37.592;2023-01-30T00:08:40;98454.91;;;-3.67;100.00
35443;BME280;21561;55.654;37.592;2023-01-30T00:11:09;98444.94;;;-3.60;100.00
35443;BME280;21561;55.654;37.592;2023-01-30T00:13:37;98445.75;;;-3.61;100.00
35443;BME280;21561;55.654;37.592;2023-01-30T00:16:05;98448.38;;;-3.58;100.00
35443;BME280;21561;55.654;37.592;2023-01-30T00:18:32;98443.44;;;-3.54;100.00
35443;BME280;21561;55.654;37.592;2023-01-30T00:21:01;98438.25;;;-3.58;100.00
35443;BME280;21561;55.654;37.592;2023-01-30T00:23:29;98444.13;;;-3.59;100.00
35443;BME280;21561;55.654;37.592;2023-01-30T00:25:57;98433.94;;;-3.61;100.00
35443;BME280;21561;55.654;37.592;2023-01-30T00:28:24;98433.88;;;-3.62;100.00
35443;BME280;21561;55.654;37.592;2023-01-30T00:30:52;98422.84;;;-3.65;100.00
35443;BME280;21561;55.654;37.592;2023-01-30T00:33:21;98427.84;;;-3.66;100.00
35443;BME280;21561;55.654;37.592;2023-01-30T00:35:50;98421.84;;;-3.70;100.00
35443;BME280;21561;55.654;37.592;2023-01-30T00:38:18;98413.38;;;-3.70;100.00
35443;BME280;21561;55.654;37.592;2023-01-30T00:40:46;98413.31;;;-3.72;100.00
35443;BME280;21561;55.654;37.592;2023-01-30T00:43:16;98401.66;;;-3.67;100.00
35443;BME280;21561;55.654;37.592;2023-01-30T00:46:08;98405.81;;;-3.69;100.00
35443;BME280;21561;55.654;37.592;2023-01-30T00:48:54;98399.78;;;-3.72;100.00
35443;BME280;21561;55.654;37.592;2023-01-30T00:51:21;98404.72;;;-3.77;100.00
35443;BME280;21561;55.654;37.592;2023-01-30T00:53:48;98403.75;;;-3.80;100.00
35443;BME280;21561;55.654;37.592;2023-01-30T00:56:15;98404.66;;;-3.80;100.00
35443;BME280;21561;55.654;37.592;2023-01-30T00:58:42;98403.75;;;-3.82;100.00
35443;BME280;21561;55.654;37.592;2023-01-30T01:01:09;98395.47;;;-3.76;100.00
35443;BME280;21561;55.654;37.592;2023-01-30T01:03:36;98392.03;;;-3.77;100.00
35443;BME280;21561;55.654;37.592;2023-01-30T01:06:04;98381.00;;;-3.79;100.00
35443;BME280;21561;55.654;37.592;2023-01-30T01:08:31;98389.56;;;-3.75;100.00
35443;BME280;21561;55.654;37.592;2023-01-30T01:10:58;98375.19;;;-3.76;100.00
35443;BME280;21561;55.654;37.592;2023-01-30T01:13:24;98381.00;;;-3.79;100.00
35443;BME280;21561;55.654;37.592;2023-01-30T01:15:51;98383.41;;;-3.84;100.00
35443;BME280;21561;55.654;37.592;2023-01-30T01:18:18;98377.56;;;-3.81;100.00
35443;BME280;21561;55.654;37.592;2023-01-30T01:20:45;98379.38;;;-3.77;100.00
35443;BME280;21561;55.654;37.592;2023-01-30T01:23:12;98372.50;;;-3.81;100.00
35443;BME280;21561;55.654;37.592;2023-01-30T01:25:39;98382.00;;;-3.74;100.00
35443;BME280;21561;55.654;37.592;2023-01-30T01:28:06;98373.41;;;-3.79;100.00
35443;BME280;21561;55.654;37.592;2023-01-30T01:30:33;98370.13;;;-3.76;100.00
35443;BME280;21561;55.654;37.592;2023-01-30T01:33:00;98365.84;;;-3.77;100.00
35443;BME280;21561;55.654;37.592;2023-01-30T01:35:26;98363.25;;;-3.79;100.00
35443;BME280;21561;55.654;37.592;2023-01-30T01:37:54;98351.41;;;-3.80;100.00
35443;BME280;21561;55.654;37.592;2023-01-30T01:40:22;98348.06;;;-3.79;100.00
35443;BME280;21561;55.654;37.592;2023-01-30T01:43:19;98357.44;;;-3.76;100.00
35443;BME280;21561;55.654;37.592;2023-01-30T01:45:49;98342.28;;;-3.75;100.00
35443;BME280;21561;55.654;37.592;2023-01-30T01:48:30;98326.22;;;-3.74;100.00
35443;BME280;21561;55.654;37.592;2023-01-30T01:54:09;98316.03;;;-3.75;100.00
35443;BME280;21561;55.654;37.592;2023-01-30T01:56:40;98312.56;;;-3.79;100.00
35443;BME280;21561;55.654;37.592;2023-01-30T01:59:31;98311.66;;;-3.81;100.00
35443;BME280;21561;55.654;37.592;2023-01-30T02:02:03;98298.00;;;-3.86;100.00
35443;BME280;21561;55.654;37.592;2023-01-30T02:04:32;98297.16;;;-3.87;100.00
35443;BME280;21561;55.654;37.592;2023-01-30T02:07:20;98294.56;;;-3.88;100.00
35443;BME280;21561;55.654;37.592;2023-01-30T02:09:48;98301.16;;;-3.93;100.00
35443;BME280;21561;55.654;37.592;2023-01-30T02:12:16;98299.53;;;-3.91;100.00
35443;BME280;21561;55.654;37.592;2023-01-30T02:14:43;98291.13;;;-3.90;100.00
35443;BME280;21561;55.654;37.592;2023-01-30T02:17:30;98297.94;;;-3.89;100.00
35443;BME280;21561;55.654;37.592;2023-01-30T02:23:23;98277.81;;;-3.83;100.00
35443;BME280;21561;55.654;37.592;2023-01-30T02:32:42;98281.09;;;-3.87;100.00
35443;BME280;21561;55.654;37.592;2023-01-30T02:38:15;98265.88;;;-3.87;100.00
35443;BME280;21561;55.654;37.592;2023-01-30T02:41:03;98260.06;;;-3.83;100.00
35443;BME280;21561;55.654;37.592;2023-01-30T02:49:09;98239.06;;;-3.79;100.00
35443;BME280;21561;55.654;37.592;2023-01-30T02:51:41;98242.34;;;-3.83;100.00
35443;BME280;21561;55.654;37.592;2023-01-30T02:54:10;98242.41;;;-3.80;100.00
35443;BME280;21561;55.654;37.592;2023-01-30T02:56:49;98231.34;;;-3.84;100.00
35443;BME280;21561;55.654;37.592;2023-01-30T02:59:26;98242.19;;;-3.89;100.00
35443;BME280;21561;55.654;37.592;2023-01-30T03:07:48;98230.75;;;-3.73;100.00
35443;BME280;21561;55.654;37.592;2023-01-30T03:13:13;98210.41;;;-3.76;100.00
35443;BME280;21561;55.654;37.592;2023-01-30T03:18:13;98196.09;;;-3.74;100.00
35443;BME280;21561;55.654;37.592;2023-01-30T03:20:40;98194.38;;;-3.75;100.00
35443;BME280;21561;55.654;37.592;2023-01-30T03:23:07;98188.44;;;-3.76;100.00
35443;BME280;21561;55.654;37.592;2023-01-30T03:25:36;98195.25;;;-3.75;100.00
35443;BME280;21561;55.654;37.592;2023-01-30T03:28:06;98189.28;;;-3.75;100.00
35443;BME280;21561;55.654;37.592;2023-01-30T03:30:34;98190.97;;;-3.76;100.00
35443;BME280;21561;55.654;37.592;2023-01-30T03:33:00;98179.19;;;-3.74;100.00
35443;BME280;21561;55.654;37.592;2023-01-30T03:35:28;98190.19;;;-3.75;100.00
35443;BME280;21561;55.654;37.592;2023-01-30T03:37:57;98179.09;;;-3.77;100.00
35443;BME280;21561;55.654;37.592;2023-01-30T03:40:24;98185.78;;;-3.80;100.00
35443;BME280;21561;55.654;37.592;2023-01-30T03:42:51;98179.78;;;-3.84;100.00
35443;BME280;21561;55.654;37.592;2023-01-30T03:45:17;98170.56;;;-3.82;100.00
35443;BME280;21561;55.654;37.592;2023-01-30T03:47:45;98164.66;;;-3.81;100.00
35443;BME280;21561;55.654;37.592;2023-01-30T03:50:12;98167.28;;;-3.78;100.00
35443;BME280;21561;55.654;37.592;2023-01-30T03:52:39;98164.78;;;-3.76;100.00
35443;BME280;21561;55.654;37.592;2023-01-30T03:55:06;98157.19;;;-3.76;100.00
35443;BME280;21561;55.654;37.592;2023-01-30T03:57:33;98149.63;;;-3.75;100.00
35443;BME280;21561;55.654;37.592;2023-01-30T04:00:00;98151.22;;;-3.77;100.00
35443;BME280;21561;55.654;37.592;2023-01-30T04:02:28;98148.69;;;-3.77;100.00
35443;BME280;21561;55.654;37.592;2023-01-30T04:04:55;98141.09;;;-3.77;100.00
35443;BME280;21561;55.654;37.592;2023-01-30T04:07:22;98123.28;;;-3.80;100.00
35443;BME280;21561;55.654;37.592;2023-01-30T04:09:49;98137.75;;;-3.76;100.00
35443;BME280;21561;55.654;37.592;2023-01-30T04:12:16;98124.00;;;-3.86;100.00
35443;BME280;21561;55.654;37.592;2023-01-30T04:14:42;98122.44;;;-3.79;100.00
35443;BME280;21561;55.654;37.592;2023-01-30T04:17:09;98114.03;;;-3.78;100.00
35443;BME280;21561;55.654;37.592;2023-01-30T04:19:36;98108.88;;;-3.81;100.00
35443;BME280;21561;55.654;37.592;2023-01-30T04:22:03;98110.53;;;-3.83;100.00
35443;BME280;21561;55.654;37.592;2023-01-30T04:24:30;98109.63;;;-3.85;100.00
35443;BME280;21561;55.654;37.592;2023-01-30T04:26:57;98102.19;;;-3.79;100.00
35443;BME280;21561;55.654;37.592;2023-01-30T04:29:24;98097.09;;;-3.79;100.00
35443;BME280;21561;55.654;37.592;2023-01-30T04:31:51;98104.00;;;-3.75;100.00
35443;BME280;21561;55.654;37.592;2023-01-30T04:34:17;98097.19;;;-3.76;100.00
35443;BME280;21561;55.654;37.592;2023-01-30T04:36:44;98098.91;;;-3.75;100.00
35443;BME280;21561;55.654;37.592;2023-01-30T04:39:11;98098.91;;;-3.75;100.00
35443;BME280;21561;55.654;37.592;2023-01-30T04:41:38;98092.94;;;-3.77;100.00
35443;BME280;21561;55.654;37.592;2023-01-30T04:44:05;98093.06;;;-3.72;100.00
35443;BME280;21561;55.654;37.592;2023-01-30T04:46:32;98086.25;;;-3.73;100.00
35443;BME280;21561;55.654;37.592;2023-01-30T04:48:59;98078.66;;;-3.75;100.00
35443;BME280;21561;55.654;37.592;2023-01-30T04:51:26;98081.97;;;-3.76;100.00
35443;BME280;21561;55.654;37.592;2023-01-30T04:53:53;98067.63;;;-3.75;100.00
35443;BME280;21561;55.654;37.592;2023-01-30T04:56:19;98073.50;;;-3.78;100.00
35443;BME280;21561;55.654;37.592;2023-01-30T04:58:46;98064.09;;;-3.82;100.00
35443;BME280;21561;55.654;37.592;2023-01-30T05:01:28;98062.56;;;-3.75;100.00
35443;BME280;21561;55.654;37.592;2023-01-30T05:03:56;98060.03;;;-3.75;100.00
35443;BME280;21561;55.654;37.592;2023-01-30T05:06:23;98059.22;;;-3.74;100.00
35443;BME280;21561;55.654;37.592;2023-01-30T05:08:51;98051.56;;;-3.76;100.00
35443;BME280;21561;55.654;37.592;2023-01-30T05:11:19;98041.44;;;-3.76;100.00
35443;BME280;21561;55.654;37.592;2023-01-30T05:13:47;98051.66;;;-3.73;100.00
35443;BME280;21561;55.654;37.592;2023-01-30T05:16:15;98036.28;;;-3.79;100.00
35443;BME280;21561;55.654;37.592;2023-01-30T05:18:42;98024.50;;;-3.77;100.00
35443;BME280;21561;55.654;37.592;2023-01-30T05:23:40;98021.16;;;-3.76;100.00
35443;BME280;21561;55.654;37.592;2023-01-30T05:26:08;98019.41;;;-3.77;100.00
35443;BME280;21561;55.654;37.592;2023-01-30T05:28:35;98008.50;;;-3.74;100.00
35443;BME280;21561;55.654;37.592;2023-01-30T05:31:04;98010.22;;;-3.73;100.00
35443;BME280;21561;55.654;37.592;2023-01-30T05:33:31;98008.47;;;-3.76;100.00
35443;BME280;21561;55.654;37.592;2023-01-30T05:35:58;98008.44;;;-3.77;100.00
35443;BME280;21561;55.654;37.592;2023-01-30T05:38:26;98000.94;;;-3.73;100.00
35443;BME280;21561;55.654;37.592;2023-01-30T05:40:59;98004.38;;;-3.71;100.00
35443;BME280;21561;55.654;37.592;2023-01-30T05:43:27;98000.91;;;-3.74;100.00
35443;BME280;21561;55.654;37.592;2023-01-30T05:45:55;97996.72;;;-3.72;100.00
35443;BME280;21561;55.654;37.592;2023-01-30T05:48:24;98000.88;;;-3.76;100.00
35443;BME280;21561;55.654;37.592;2023-01-30T05:50:55;97985.75;;;-3.73;100.00
35443;BME280;21561;55.654;37.592;2023-01-30T05:53:25;97983.88;;;-3.80;100.00
35443;BME280;21561;55.654;37.592;2023-01-30T05:56:03;97983.09;;;-3.77;100.00
35443;BME280;21561;55.654;37.592;2023-01-30T05:58:31;97973.00;;;-3.76;100.00
35443;BME280;21561;55.654;37.592;2023-01-30T06:01:03;97982.31;;;-3.75;100.00
35443;BME280;21561;55.654;37.592;2023-01-30T06:03:30;97973.06;;;-3.73;100.00
35443;BME280;21561;55.654;37.592;2023-01-30T06:05:57;97977.25;;;-3.75;100.00
35443;BME280;21561;55.654;37.592;2023-01-30T06:08:26;97975.53;;;-3.76;100.00
35443;BME280;21561;55.654;37.592;2023-01-30T06:10:53;97967.16;;;-3.72;100.00
35443;BME280;21561;55.654;37.592;2023-01-30T06:13:20;97978.19;;;-3.71;100.00
35443;BME280;21561;55.654;37.592;2023-01-30T06:15:47;97974.84;;;-3.69;100.00
35443;BME280;21561;55.654;37.592;2023-01-30T06:18:14;97971.31;;;-3.75;100.00
35443;BME280;21561;55.654;37.592;2023-01-30T06:20:48;97970.56;;;-3.71;100.00
35443;BME280;21561;55.654;37.592;2023-01-30T06:23:16;97975.59;;;-3.73;100.00
35443;BME280;21561;55.654;37.592;2023-01-30T06:25:44;97971.47;;;-3.69;100.00
35443;BME280;21561;55.654;37.592;2023-01-30T06:28:12;97970.44;;;-3.76;100.00
35443;BME280;21561;55.654;37.592;2023-01-30T06:30:39;97955.13;;;-3.82;100.00
35443;BME280;21561;55.654;37.592;2023-01-30T06:33:07;97972.19;;;-3.75;100.00
35443;BME280;21561;55.654;37.592;2023-01-30T06:35:36;97967.16;;;-3.72;100.00
35443;BME280;21561;55.654;37.592;2023-01-30T06:38:04;97968.09;;;-3.68;100.00
35443;BME280;21561;55.654;37.592;2023-01-30T06:40:31;97961.34;;;-3.68;100.00
35443;BME280;21561;55.654;37.592;2023-01-30T06:42:58;97963.91;;;-3.66;100.00
35443;BME280;21561;55.654;37.592;2023-01-30T06:45:25;97953.75;;;-3.68;100.00
35443;BME280;21561;55.654;37.592;2023-01-30T06:47:53;97953.75;;;-3.68;100.00
35443;BME280;21561;55.654;37.592;2023-01-30T06:50:24;97954.69;;;-3.64;100.00
35443;BME280;21561;55.654;37.592;2023-01-30T06:52:55;97948.69;;;-3.68;100.00
35443;BME280;21561;55.654;37.592;2023-01-30T06:55:25;97951.22;;;-3.66;100.00
35443;BME280;21561;55.654;37.592;2023-01-30T06:58:11;97948.72;;;-3.65;100.00
35443;BME280;21561;55.654;37.592;2023-01-30T07:00:42;97939.34;;;-3.69;100.00
35443;BME280;21561;55.654;37.592;2023-01-30T07:03:13;97944.56;;;-3.61;100.00
35443;BME280;21561;55.654;37.592;2023-01-30T07:05:42;97953.78;;;-3.65;100.00
35443;BME280;21561;55.654;37.592;2023-01-30T07:08:09;97945.38;;;-3.63;100.00
35443;BME280;21561;55.654;37.592;2023-01-30T07:10:37;97950.56;;;-3.57;100.00
35443;BME280;21561;55.654;37.592;2023-01-30T07:13:04;97947.22;;;-3.56;100.00
35443;BME280;21561;55.654;37.592;2023-01-30T07:15:31;97959.13;;;-3.52;100.00
35443;BME280;21561;55.654;37.592;2023-01-30T07:17:59;97939.69;;;-3.53;100.00
35443;BME280;21561;55.654;37.592;2023-01-30T07:20:25;97950.66;;;-3.54;100.00
35443;BME280;21561;55.654;37.592;2023-01-30T07:22:54;97948.25;;;-3.48;100.00
35443;BME280;21561;55.654;37.592;2023-01-30T07:25:22;97938.94;;;-3.49;100.00
35443;BME280;21561;55.654;37.592;2023-01-30T07:27:51;97929.75;;;-3.44;100.00
35443;BME280;21561;55.654;37.592;2023-01-30T07:30:18;97920.56;;;-3.39;100.00
35443;BME280;21561;55.654;37.592;2023-01-30T07:32:49;97926.56;;;-3.34;100.00
35443;BME280;21561;55.654;37.592;2023-01-30T07:35:17;97910.34;;;-3.42;100.00
35443;BME280;21561;55.654;37.592;2023-01-30T07:37:49;97908.59;;;-3.43;100.00
35443;BME280;21561;55.654;37.592;2023-01-30T07:40:17;97901.91;;;-3.41;100.00
35443;BME280;21561;55.654;37.592;2023-01-30T07:42:55;97908.81;;;-3.34;100.00
35443;BME280;21561;55.654;37.592;2023-01-30T07:45:23;97898.56;;;-3.38;100.00
35443;BME280;21561;55.654;37.592;2023-01-30T07:47:50;97903.66;;;-3.38;100.00
35443;BME280;21561;55.654;37.592;2023-01-30T07:50:18;97898.69;;;-3.32;100.00
35443;BME280;21561;55.654;37.592;2023-01-30T07:52:45;97899.34;;;-3.42;100.00
35443;BME280;21561;55.654;37.592;2023-01-30T07:55:12;97888.47;;;-3.37;100.00
35443;BME280;21561;55.654;37.592;2023-01-30T07:57:39;97884.09;;;-3.44;100.00
35443;BME280;21561;55.654;37.592;2023-01-30T08:00:07;97878.13;;;-3.46;100.00
35443;BME280;21561;55.654;37.592;2023-01-30T08:02:36;97877.28;;;-3.45;100.00
35443;BME280;21561;55.654;37.592;2023-01-30T08:05:04;97879.84;;;-3.45;100.00
35443;BME280;21561;55.654;37.592;2023-01-30T08:07:32;97877.38;;;-3.42;100.00
35443;BME280;21561;55.654;37.592;2023-01-30T08:09:59;97878.31;;;-3.37;100.00
35443;BME280;21561;55.654;37.592;2023-01-30T08:12:25;97875.63;;;-3.43;100.00
35443;BME280;21561;55.654;37.592;2023-01-30T08:14:53;97873.09;;;-3.43;100.00
35443;BME280;21561;55.654;37.592;2023-01-30T08:17:20;97876.56;;;-3.41;100.00
35443;BME280;21561;55.654;37.592;2023-01-30T08:19:47;97869.69;;;-3.45;100.00
35443;BME280;21561;55.654;37.592;2023-01-30T08:22:13;97849.56;;;-3.36;100.00
35443;BME280;21561;55.654;37.592;2023-01-30T08:24:40;97867.31;;;-3.36;100.00
35443;BME280;21561;55.654;37.592;2023-01-30T08:27:07;97854.72;;;-3.33;100.00
35443;BME280;21561;55.654;37.592;2023-01-30T08:29:34;97853.88;;;-3.33;100.00
35443;BME280;21561;55.654;37.592;2023-01-30T08:32:01;97847.97;;;-3.31;100.00
35443;BME280;21561;55.654;37.592;2023-01-30T08:34:28;97841.22;;;-3.32;100.00
35443;BME280;21561;55.654;37.592;2023-01-30T08:36:55;97844.63;;;-3.30;100.00
35443;BME280;21561;55.654;37.592;2023-01-30T08:39:22;97840.41;;;-3.29;100.00
35443;BME280;21561;55.654;37.592;2023-01-30T08:41:48;97844.72;;;-3.23;100.00
35443;BME280;21561;55.654;37.592;2023-01-30T08:44:15;97833.81;;;-3.21;100.00
35443;BME280;21561;55.654;37.592;2023-01-30T08:46:42;97848.22;;;-3.18;100.00
35443;BME280;21561;55.654;37.592;2023-01-30T08:49:10;97835.47;;;-3.23;100.00
35443;BME280;21561;55.654;37.592;2023-01-30T08:51:37;97836.38;;;-3.19;100.00
35443;BME280;21561;55.654;37.592;2023-01-30T08:54:04;97827.00;;;-3.22;100.00
35443;BME280;21561;55.654;37.592;2023-01-30T08:56:33;97822.84;;;-3.18;100.00
35443;BME280;21561;55.654;37.592;2023-01-30T08:59:00;97839.69;;;-3.22;100.00
35443;BME280;21561;55.654;37.592;2023-01-30T09:01:28;97826.16;;;-3.22;100.00
35443;BME280;21561;55.654;37.592;2023-01-30T09:03:55;97812.69;;;-3.18;100.00
35443;BME280;21561;55.654;37.592;2023-01-30T09:06:22;97805.97;;;-3.16;100.00
35443;BME280;21561;55.654;37.592;2023-01-30T09:08:51;97810.31;;;-3.09;100.00
35443;BME280;21561;55.654;37.592;2023-01-30T09:11:18;97816.28;;;-3.09;100.00
35443;BME280;21561;55.654;37.592;2023-01-30T09:13:45;97800.19;;;-3.08;100.00
35443;BME280;21561;55.654;37.592;2023-01-30T09:16:15;97795.97;;;-3.07;100.00
35443;BME280;21561;55.654;37.592;2023-01-30T09:18:43;97780.81;;;-3.04;100.00
35443;BME280;21561;55.654;37.592;2023-01-30T09:21:12;97807.03;;;-3.03;100.00
35443;BME280;21561;55.654;37.592;2023-01-30T09:23:39;97782.53;;;-3.03;100.00
35443;BME280;21561;55.654;37.592;2023-01-30T09:26:06;97787.63;;;-3.00;100.00
35443;BME280;21561;55.654;37.592;2023-01-30T09:28:33;97786.81;;;-2.99;100.00
35443;BME280;21561;55.654;37.592;2023-01-30T09:31:01;97779.22;;;-2.99;100.00
35443;BME280;21561;55.654;37.592;2023-01-30T09:33:28;97764.88;;;-2.95;100.00
35443;BME280;21561;55.654;37.592;2023-01-30T09:35:56;97769.16;;;-2.94;100.00
35443;BME280;21561;55.654;37.592;2023-01-30T09:38:23;97765.84;;;-2.89;100.00
35443;BME280;21561;55.654;37.592;2023-01-30T09:40:56;97750.56;;;-2.92;100.00
35443;BME280;21561;55.654;37.592;2023-01-30T09:44:09;97748.13;;;-2.84;100.00
35443;BME280;21561;55.654;37.592;2023-01-30T09:47:01;97743.13;;;-2.79;100.00
35443;BME280;21561;55.654;37.592;2023-01-30T09:57:46;97728.00;;;-2.72;100.00
35443;BME280;21561;55.654;37.592;2023-01-30T10:00:24;97726.34;;;-2.70;100.00
35443;BME280;21561;55.654;37.592;2023-01-30T10:05:49;97712.00;;;-2.66;100.00
35443;BME280;21561;55.654;37.592;2023-01-30T10:08:44;97700.25;;;-2.59;100.00
35443;BME280;21561;55.654;37.592;2023-01-30T10:14:14;97691.75;;;-2.63;100.00
35443;BME280;21561;55.654;37.592;2023-01-30T10:16:51;97707.81;;;-2.64;100.00
35443;BME280;21561;55.654;37.592;2023-01-30T10:25:12;97684.22;;;-2.58;100.00
35443;BME280;21561;55.654;37.592;2023-01-30T10:28:18;97669.88;;;-2.52;100.00
35443;BME280;21561;55.654;37.592;2023-01-30T10:30:45;97680.03;;;-2.52;100.00
35443;BME280;21561;55.654;37.592;2023-01-30T10:33:29;97680.03;;;-2.52;100.00
35443;BME280;21561;55.654;37.592;2023-01-30T10:36:11;97677.50;;;-2.52;100.00
35443;BME280;21561;55.654;37.592;2023-01-30T10:38:48;97682.53;;;-2.56;100.00
35443;BME280;21561;55.654;37.592;2023-01-30T10:43:46;97677.53;;;-2.48;100.00
35443;BME280;21561;55.654;37.592;2023-01-30T10:52:05;97659.81;;;-2.45;100.00
35443;BME280;21561;55.654;37.592;2023-01-30T10:54:44;97653.91;;;-2.43;100.00
35443;BME280;21561;55.654;37.592;2023-01-30T10:57:42;97666.66;;;-2.40;100.00
35443;BME280;21561;55.654;37.592;2023-01-30T11:08:25;97634.53;;;-2.36;100.00
35443;BME280;21561;55.654;37.592;2023-01-30T11:10:54;97629.41;;;-2.39;100.00
35443;BME280;21561;55.654;37.592;2023-01-30T11:13:27;97622.66;;;-2.37;100.00
35443;BME280;21561;55.654;37.592;2023-01-30T11:16:03;97629.50;;;-2.30;100.00
35443;BME280;21561;55.654;37.592;2023-01-30T11:18:31;97626.94;;;-2.35;100.00
35443;BME280;21561;55.654;37.592;2023-01-30T11:21:25;97630.31;;;-2.34;100.00
35443;BME280;21561;55.654;37.592;2023-01-30T11:24:15;97624.41;;;-2.33;100.00
35443;BME280;21561;55.654;37.592;2023-01-30T11:26:43;97601.53;;;-2.35;100.00
35443;BME280;21561;55.654;37.592;2023-01-30T11:29:29;97617.66;;;-2.31;100.00
35443;BME280;21561;55.654;37.592;2023-01-30T11:32:02;97603.19;;;-2.37;100.00
35443;BME280;21561;55.654;37.592;2023-01-30T11:34:29;97610.03;;;-2.31;100.00
35443;BME280;21561;55.654;37.592;2023-01-30T11:37:23;97610.06;;;-2.29;100.00
35443;BME280;21561;55.654;37.592;2023-01-30T11:39:52;97590.53;;;-2.32;100.00
35443;BME280;21561;55.654;37.592;2023-01-30T11:42:24;97588.06;;;-2.27;100.00
35443;BME280;21561;55.654;37.592;2023-01-30T11:44:58;97590.53;;;-2.32;100.00
35443;BME280;21561;55.654;37.592;2023-01-30T11:47:57;97593.97;;;-2.27;100.00
35443;BME280;21561;55.654;37.592;2023-01-30T11:50:37;97583.75;;;-2.33;100.00
35443;BME280;21561;55.654;37.592;2023-01-30T11:53:22;97585.44;;;-2.32;100.00
35443;BME280;21561;55.654;37.592;2023-01-30T11:55:56;97582.00;;;-2.37;100.00
35443;BME280;21561;55.654;37.592;2023-01-30T11:58:35;97579.47;;;-2.36;100.00
35443;BME280;21561;55.654;37.592;2023-01-30T12:01:04;97576.91;;;-2.37;100.00
35443;BME280;21561;55.654;37.592;2023-01-30T12:03:38;97568.53;;;-2.30;100.00
35443;BME280;21561;55.654;37.592;2023-01-30T12:06:10;97576.13;;;-2.35;100.00
35443;BME280;21561;55.654;37.592;2023-01-30T12:08:41;97573.59;;;-2.30;100.00
35443;BME280;21561;55.654;37.592;2023-01-30T12:14:39;97565.22;;;-2.26;100.00
35443;BME280;21561;55.654;37.592;2023-01-30T12:17:15;97566.84;;;-2.28;100.00
35443;BME280;21561;55.654;37.592;2023-01-30T12:20:16;97553.38;;;-2.24;100.00
35443;BME280;21561;55.654;37.592;2023-01-30T12:25:40;97554.97;;;-2.31;100.00
35443;BME280;21561;55.654;37.592;2023-01-30T12:30:55;97539.72;;;-2.32;100.00
35443;BME280;21561;55.654;37.592;2023-01-30T12:33:27;97531.28;;;-2.29;100.00
35443;BME280;21561;55.654;37.592;2023-01-30T12:44:41;97531.31;;;-2.25;100.00
35443;BME280;21561;55.654;37.592;2023-01-30T12:58:01;97507.59;;;-2.27;100.00
35443;BME280;21561;55.654;37.592;2023-01-30T13:20:15;97498.38;;;-2.14;100.00
35443;BME280;21561;55.654;37.592;2023-01-30T13:23:04;97487.34;;;-2.18;100.00
35443;BME280;21561;55.654;37.592;2023-01-30T13:25:40;97500.88;;;-2.22;100.00
35443;BME280;21561;55.654;37.592;2023-01-30T13:28:13;97500.91;;;-2.19;100.00
35443;BME280;21561;55.654;37.592;2023-01-30T13:30:43;97489.03;;;-2.20;100.00
35443;BME280;21561;55.654;37.592;2023-01-30T13:33:32;97484.03;;;-2.11;100.00
35443;BME280;21561;55.654;37.592;2023-01-30T13:38:33;97512.75;;;-2.18;100.00
35443;BME280;21561;55.654;37.592;2023-01-30T13:41:04;97478.91;;;-2.17;100.00
35443;BME280;21561;55.654;37.592;2023-01-30T13:43:37;97480.63;;;-2.13;100.00
35443;BME280;21561;55.654;37.592;2023-01-30T13:46:10;97484.03;;;-2.11;100.00
35443;BME280;21561;55.654;37.592;2023-01-30T13:56:50;97465.41;;;-2.09;100.00
35443;BME280;21561;55.654;37.592;2023-01-30T14:02:16;97473.94;;;-2.04;100.00
35443;BME280;21561;55.654;37.592;2023-01-30T14:04:45;97474.81;;;-2.01;100.00
35443;BME280;21561;55.654;37.592;2023-01-30T14:12:21;97468.84;;;-2.04;100.00
35443;BME280;21561;55.654;37.592;2023-01-30T14:20:25;97471.47;;;-1.94;100.00
35443;BME280;21561;55.654;37.592;2023-01-30T14:23:21;97471.50;;;-1.86;100.00
35443;BME280;21561;55.654;37.592;2023-01-30T14:25:53;97468.09;;;-1.89;100.00
35443;BME280;21561;55.654;37.592;2023-01-30T14:30:56;97468.97;;;-1.86;100.00
35443;BME280;21561;55.654;37.592;2023-01-30T14:38:25;97450.31;;;-1.85;100.00
35443;BME280;21561;55.654;37.592;2023-01-30T14:54:17;97463.97;;;-1.74;100.00
35443;BME280;21561;55.654;37.592;2023-01-30T14:59:39;97477.50;;;-1.75;99.89
35443;BME280;21561;55.654;37.592;2023-01-30T15:07:31;97460.59;;;-1.69;98.98
35443;BME280;21561;55.654;37.592;2023-01-30T15:32:12;97436.88;;;-1.65;97.62
35443;BME280;21561;55.654;37.592;2023-01-30T15:34:48;97423.34;;;-1.64;97.69
35443;BME280;21561;55.654;37.592;2023-01-30T15:37:33;97450.50;;;-1.57;97.15
35443;BME280;21561;55.654;37.592;2023-01-30T15:44:09;97451.38;;;-1.55;96.99
35443;BME280;21561;55.654;37.592;2023-01-30T15:51:44;97447.09;;;-1.62;96.22
35443;BME280;21561;55.654;37.592;2023-01-30T15:54:16;97417.47;;;-1.56;96.45
35443;BME280;21561;55.654;37.592;2023-01-30T15:56:45;97425.91;;;-1.63;95.97
35443;BME280;21561;55.654;37.592;2023-01-30T15:59:23;97423.38;;;-1.58;96.34
35443;BME280;21561;55.654;37.592;2023-01-30T16:02:00;97420.00;;;-1.57;95.88
35443;BME280;21561;55.654;37.592;2023-01-30T16:04:28;97408.91;;;-1.65;95.63
35443;BME280;21561;55.654;37.592;2023-01-30T16:06:55;97412.31;;;-1.62;95.99
35443;BME280;21561;55.654;37.592;2023-01-30T16:09:24;97397.06;;;-1.60;96.13
35443;BME280;21561;55.654;37.592;2023-01-30T16:11:51;97416.56;;;-1.62;96.11
35443;BME280;21561;55.654;37.592;2023-01-30T16:14:20;97390.31;;;-1.61;96.15
35443;BME280;21561;55.654;37.592;2023-01-30T16:16:57;97411.47;;;-1.62;95.47
35443;BME280;21561;55.654;37.592;2023-01-30T16:19:35;97396.28;;;-1.56;95.75
35443;BME280;21561;55.654;37.592;2023-01-30T16:22:09;97387.75;;;-1.58;95.58
35443;BME280;21561;55.654;37.592;2023-01-30T16:24:44;97391.16;;;-1.59;95.46